Warm Springs, Georgia
Current Conditions -  °F | °C
As of 1:15 PM on Thursday 30 Oct 2014 (Local Time) from KLGC Reporting Station
Clear Clear  
Wind Chill: 67°   Ceiling: Unl
Heat Index: 67°   Visibility: 10mi
Dew Point: 46°   Wind: 7mph
Humidity: 46%   Direction: 10°N
Pressure: 30.06"   Gusts: NA
Location:  32.89°N, 84.68°W
Report Text: KLGC 301715Z AUTO 01006KT 10SM CLR 20/08 A3006 RMK AO2 T01950075
Loading
Personal Weather Stations






























Interactive Weather Map
Tropical Storm Tracking
New forecast layout! Learn more

10-Day Weather Forecast

Advertisements
Track Severe Weather on mobile